sensor_id;sensor_type;location;lat;lon;timestamp;temperature;humidity
58339;DHT22;68636;52.704;6.536;2023-04-15T00:00:42;7.10;99.90
58339;DHT22;68636;52.704;6.536;2023-04-15T00:03:08;7.10;99.90
58339;DHT22;68636;52.704;6.536;2023-04-15T00:05:33;7.00;99.90
58339;DHT22;68636;52.704;6.536;2023-04-15T00:08:01;7.00;99.90
58339;DHT22;68636;52.704;6.536;2023-04-15T00:10:27;7.00;99.90
58339;DHT22;68636;52.704;6.536;2023-04-15T00:12:53;6.90;99.90
58339;DHT22;68636;52.704;6.536;2023-04-15T00:15:19;6.90;99.90
58339;DHT22;68636;52.704;6.536;2023-04-15T00:17:45;6.90;99.90
58339;DHT22;68636;52.704;6.536;2023-04-15T00:20:11;6.80;99.90
58339;DHT22;68636;52.704;6.536;2023-04-15T00:22:37;6.80;99.90
58339;DHT22;68636;52.704;6.536;2023-04-15T00:25:03;6.80;99.90
58339;DHT22;68636;52.704;6.536;2023-04-15T00:27:28;6.70;99.90
58339;DHT22;68636;52.704;6.536;2023-04-15T00:29:55;6.70;99.90
58339;DHT22;68636;52.704;6.536;2023-04-15T00:32:20;6.70;99.90
58339;DHT22;68636;52.704;6.536;2023-04-15T00:34:46;6.70;99.90
58339;DHT22;68636;52.704;6.536;2023-04-15T00:37:12;6.70;99.90
58339;DHT22;68636;52.704;6.536;2023-04-15T00:39:38;6.70;99.90
58339;DHT22;68636;52.704;6.536;2023-04-15T00:42:04;6.60;99.90
58339;DHT22;68636;52.704;6.536;2023-04-15T00:44:30;6.60;99.90
58339;DHT22;68636;52.704;6.536;2023-04-15T00:46:56;6.50;99.90
58339;DHT22;68636;52.704;6.536;2023-04-15T00:49:23;6.50;99.90
58339;DHT22;68636;52.704;6.536;2023-04-15T00:51:49;6.50;99.90
58339;DHT22;68636;52.704;6.536;2023-04-15T00:54:15;6.50;99.90
58339;DHT22;68636;52.704;6.536;2023-04-15T00:56:41;6.40;99.90
58339;DHT22;68636;52.704;6.536;2023-04-15T00:59:07;6.40;99.90
58339;DHT22;68636;52.704;6.536;2023-04-15T01:01:35;6.40;99.90
58339;DHT22;68636;52.704;6.536;2023-04-15T01:04:01;6.30;99.90
58339;DHT22;68636;52.704;6.536;2023-04-15T01:06:28;6.30;99.90
58339;DHT22;68636;52.704;6.536;2023-04-15T01:08:55;6.20;99.90
58339;DHT22;68636;52.704;6.536;2023-04-15T01:11:22;6.20;99.90
58339;DHT22;68636;52.704;6.536;2023-04-15T01:13:52;6.10;99.90
58339;DHT22;68636;52.704;6.536;2023-04-15T01:16:19;6.10;99.90
58339;DHT22;68636;52.704;6.536;2023-04-15T01:18:45;6.10;99.90
58339;DHT22;68636;52.704;6.536;2023-04-15T01:21:11;6.00;99.90
58339;DHT22;68636;52.704;6.536;2023-04-15T01:23:38;6.00;99.90
58339;DHT22;68636;52.704;6.536;2023-04-15T01:26:06;6.00;99.90
58339;DHT22;68636;52.704;6.536;2023-04-15T01:28:33;6.00;99.90
58339;DHT22;68636;52.704;6.536;2023-04-15T01:31:10;6.00;99.90
58339;DHT22;68636;52.704;6.536;2023-04-15T01:33:37;5.90;99.90
58339;DHT22;68636;52.704;6.536;2023-04-15T01:36:04;5.90;99.90
58339;DHT22;68636;52.704;6.536;2023-04-15T01:38:31;5.90;99.90
58339;DHT22;68636;52.704;6.536;2023-04-15T01:40:57;5.90;99.90
58339;DHT22;68636;52.704;6.536;2023-04-15T01:43:25;5.90;99.90
58339;DHT22;68636;52.704;6.536;2023-04-15T01:45:51;5.80;99.90
58339;DHT22;68636;52.704;6.536;2023-04-15T01:48:16;5.80;99.90
58339;DHT22;68636;52.704;6.536;2023-04-15T01:50:43;5.80;99.90
58339;DHT22;68636;52.704;6.536;2023-04-15T01:53:09;5.80;99.90
58339;DHT22;68636;52.704;6.536;2023-04-15T01:55:35;5.70;99.90
58339;DHT22;68636;52.704;6.536;2023-04-15T01:58:01;5.70;99.90
58339;DHT22;68636;52.704;6.536;2023-04-15T02:00:27;5.60;99.90
58339;DHT22;68636;52.704;6.536;2023-04-15T02:02:53;5.60;99.90
58339;DHT22;68636;52.704;6.536;2023-04-15T02:05:19;5.60;99.90
58339;DHT22;68636;52.704;6.536;2023-04-15T02:07:45;5.60;99.90
58339;DHT22;68636;52.704;6.536;2023-04-15T02:10:10;5.50;99.90
58339;DHT22;68636;52.704;6.536;2023-04-15T02:12:38;5.50;99.90
58339;DHT22;68636;52.704;6.536;2023-04-15T02:15:04;5.40;99.90
58339;DHT22;68636;52.704;6.536;2023-04-15T02:17:33;5.30;99.90
58339;DHT22;68636;52.704;6.536;2023-04-15T02:20:00;5.30;99.90
58339;DHT22;68636;52.704;6.536;2023-04-15T02:22:26;5.30;99.90
58339;DHT22;68636;52.704;6.536;2023-04-15T02:24:52;5.30;99.90
58339;DHT22;68636;52.704;6.536;2023-04-15T02:27:18;5.30;99.90
58339;DHT22;68636;52.704;6.536;2023-04-15T02:29:44;5.20;99.90
58339;DHT22;68636;52.704;6.536;2023-04-15T02:32:11;5.20;99.90
58339;DHT22;68636;52.704;6.536;2023-04-15T02:34:38;5.20;99.90
58339;DHT22;68636;52.704;6.536;2023-04-15T02:37:06;5.20;99.90
58339;DHT22;68636;52.704;6.536;2023-04-15T02:39:32;5.10;99.90
58339;DHT22;68636;52.704;6.536;2023-04-15T02:41:58;5.10;99.90
58339;DHT22;68636;52.704;6.536;2023-04-15T02:44:25;5.40;99.90
58339;DHT22;68636;52.704;6.536;2023-04-15T02:46:52;5.30;99.90
58339;DHT22;68636;52.704;6.536;2023-04-15T02:49:22;5.70;99.90
58339;DHT22;68636;52.704;6.536;2023-04-15T02:51:48;5.10;99.90
58339;DHT22;68636;52.704;6.536;2023-04-15T02:54:19;5.10;99.90
58339;DHT22;68636;52.704;6.536;2023-04-15T02:56:45;5.00;99.90
58339;DHT22;68636;52.704;6.536;2023-04-15T02:59:11;5.00;99.90
58339;DHT22;68636;52.704;6.536;2023-04-15T03:01:37;5.10;99.90
58339;DHT22;68636;52.704;6.536;2023-04-15T03:04:03;5.00;99.90
58339;DHT22;68636;52.704;6.536;2023-04-15T03:06:29;5.00;99.90
58339;DHT22;68636;52.704;6.536;2023-04-15T03:08:55;4.90;99.90
58339;DHT22;68636;52.704;6.536;2023-04-15T03:11:21;4.90;99.90
58339;DHT22;68636;52.704;6.536;2023-04-15T03:13:47;4.80;99.90
58339;DHT22;68636;52.704;6.536;2023-04-15T03:16:13;4.90;99.90
58339;DHT22;68636;52.704;6.536;2023-04-15T03:18:38;4.90;99.90
58339;DHT22;68636;52.704;6.536;2023-04-15T03:21:04;5.00;99.90
58339;DHT22;68636;52.704;6.536;2023-04-15T03:23:31;4.80;99.90
58339;DHT22;68636;52.704;6.536;2023-04-15T03:25:57;4.90;99.90
58339;DHT22;68636;52.704;6.536;2023-04-15T03:28:23;4.90;99.90
58339;DHT22;68636;52.704;6.536;2023-04-15T03:30:49;4.80;99.90
58339;DHT22;68636;52.704;6.536;2023-04-15T03:33:15;4.70;99.90
58339;DHT22;68636;52.704;6.536;2023-04-15T03:35:40;4.70;99.90
58339;DHT22;68636;52.704;6.536;2023-04-15T03:38:06;4.70;99.90
58339;DHT22;68636;52.704;6.536;2023-04-15T03:40:32;4.70;99.90
58339;DHT22;68636;52.704;6.536;2023-04-15T03:42:58;4.70;99.90
58339;DHT22;68636;52.704;6.536;2023-04-15T03:45:24;4.70;99.90
58339;DHT22;68636;52.704;6.536;2023-04-15T03:47:50;4.70;99.90
58339;DHT22;68636;52.704;6.536;2023-04-15T03:50:16;4.70;99.90
58339;DHT22;68636;52.704;6.536;2023-04-15T03:52:42;4.60;99.90
58339;DHT22;68636;52.704;6.536;2023-04-15T03:55:08;4.60;99.90
58339;DHT22;68636;52.704;6.536;2023-04-15T03:57:34;4.60;99.90
58339;DHT22;68636;52.704;6.536;2023-04-15T04:00:07;4.70;99.90
58339;DHT22;68636;52.704;6.536;2023-04-15T04:02:34;4.70;99.90
58339;DHT22;68636;52.704;6.536;2023-04-15T04:04:59;4.70;99.90
58339;DHT22;68636;52.704;6.536;2023-04-15T04:07:25;4.70;99.90
58339;DHT22;68636;52.704;6.536;2023-04-15T04:09:51;4.70;99.90
58339;DHT22;68636;52.704;6.536;2023-04-15T04:12:17;4.60;99.90
58339;DHT22;68636;52.704;6.536;2023-04-15T04:14:42;4.70;99.90
58339;DHT22;68636;52.704;6.536;2023-04-15T04:17:08;4.70;99.90
58339;DHT22;68636;52.704;6.536;2023-04-15T04:19:35;4.60;99.90
58339;DHT22;68636;52.704;6.536;2023-04-15T04:22:00;4.60;99.90
58339;DHT22;68636;52.704;6.536;2023-04-15T04:24:26;4.50;99.90
58339;DHT22;68636;52.704;6.536;2023-04-15T04:26:52;4.60;99.90
58339;DHT22;68636;52.704;6.536;2023-04-15T04:29:18;4.60;99.90
58339;DHT22;68636;52.704;6.536;2023-04-15T04:31:43;4.50;99.90
58339;DHT22;68636;52.704;6.536;2023-04-15T04:34:10;4.50;99.90
58339;DHT22;68636;52.704;6.536;2023-04-15T04:36:36;4.50;99.90
58339;DHT22;68636;52.704;6.536;2023-04-15T04:39:01;4.50;99.90
58339;DHT22;68636;52.704;6.536;2023-04-15T04:41:27;4.50;99.90
58339;DHT22;68636;52.704;6.536;2023-04-15T04:43:53;4.50;99.90
58339;DHT22;68636;52.704;6.536;2023-04-15T04:46:19;4.50;99.90
58339;DHT22;68636;52.704;6.536;2023-04-15T04:48:44;4.40;99.90
58339;DHT22;68636;52.704;6.536;2023-04-15T04:51:10;4.40;99.90
58339;DHT22;68636;52.704;6.536;2023-04-15T04:53:36;4.50;99.90
58339;DHT22;68636;52.704;6.536;2023-04-15T04:56:02;4.40;99.90
58339;DHT22;68636;52.704;6.536;2023-04-15T04:58:28;4.40;99.90
58339;DHT22;68636;52.704;6.536;2023-04-15T05:00:54;4.50;99.90
58339;DHT22;68636;52.704;6.536;2023-04-15T05:03:21;4.50;99.90
58339;DHT22;68636;52.704;6.536;2023-04-15T05:05:47;4.50;99.90
58339;DHT22;68636;52.704;6.536;2023-04-15T05:08:14;4.50;99.90
58339;DHT22;68636;52.704;6.536;2023-04-15T05:10:40;4.40;99.90
58339;DHT22;68636;52.704;6.536;2023-04-15T05:13:06;4.50;99.90
58339;DHT22;68636;52.704;6.536;2023-04-15T05:15:32;4.50;99.90
58339;DHT22;68636;52.704;6.536;2023-04-15T05:17:59;4.50;99.90
58339;DHT22;68636;52.704;6.536;2023-04-15T05:20:25;4.50;99.90
58339;DHT22;68636;52.704;6.536;2023-04-15T05:22:51;4.50;99.90
58339;DHT22;68636;52.704;6.536;2023-04-15T05:25:16;4.50;99.90
58339;DHT22;68636;52.704;6.536;2023-04-15T05:27:42;4.50;99.90
58339;DHT22;68636;52.704;6.536;2023-04-15T05:30:08;4.50;99.90
58339;DHT22;68636;52.704;6.536;2023-04-15T05:32:34;4.60;99.90
58339;DHT22;68636;52.704;6.536;2023-04-15T05:35:00;4.60;99.90
58339;DHT22;68636;52.704;6.536;2023-04-15T05:37:25;4.70;99.90
58339;DHT22;68636;52.704;6.536;2023-04-15T05:39:51;4.80;99.90
58339;DHT22;68636;52.704;6.536;2023-04-15T05:42:17;4.80;99.90
58339;DHT22;68636;52.704;6.536;2023-04-15T05:44:43;4.80;99.90
58339;DHT22;68636;52.704;6.536;2023-04-15T05:47:08;4.90;99.90
58339;DHT22;68636;52.704;6.536;2023-04-15T05:49:35;4.90;99.90
58339;DHT22;68636;52.704;6.536;2023-04-15T05:52:02;5.00;99.90
58339;DHT22;68636;52.704;6.536;2023-04-15T05:54:27;5.00;99.90
58339;DHT22;68636;52.704;6.536;2023-04-15T05:56:53;5.10;99.90
58339;DHT22;68636;52.704;6.536;2023-04-15T05:59:19;5.10;99.90
58339;DHT22;68636;52.704;6.536;2023-04-15T06:01:45;5.20;99.90
58339;DHT22;68636;52.704;6.536;2023-04-15T06:04:11;5.20;99.90
58339;DHT22;68636;52.704;6.536;2023-04-15T06:06:36;5.20;99.90
58339;DHT22;68636;52.704;6.536;2023-04-15T06:09:03;5.30;99.90
58339;DHT22;68636;52.704;6.536;2023-04-15T06:11:29;5.30;99.90
58339;DHT22;68636;52.704;6.536;2023-04-15T06:13:55;5.40;99.90
58339;DHT22;68636;52.704;6.536;2023-04-15T06:16:21;5.60;99.90
58339;DHT22;68636;52.704;6.536;2023-04-15T06:18:47;5.60;99.90
58339;DHT22;68636;52.704;6.536;2023-04-15T06:21:14;5.70;99.90
58339;DHT22;68636;52.704;6.536;2023-04-15T06:23:40;5.70;99.90
58339;DHT22;68636;52.704;6.536;2023-04-15T06:26:06;5.80;99.90
58339;DHT22;68636;52.704;6.536;2023-04-15T06:28:32;5.90;99.90
58339;DHT22;68636;52.704;6.536;2023-04-15T06:30:57;6.10;99.90
58339;DHT22;68636;52.704;6.536;2023-04-15T06:33:23;6.10;99.90
58339;DHT22;68636;52.704;6.536;2023-04-15T06:35:49;6.20;99.90
58339;DHT22;68636;52.704;6.536;2023-04-15T06:38:15;6.30;99.90
58339;DHT22;68636;52.704;6.536;2023-04-15T06:40:41;6.50;99.90
58339;DHT22;68636;52.704;6.536;2023-04-15T06:43:07;6.50;99.90
58339;DHT22;68636;52.704;6.536;2023-04-15T06:45:33;6.70;99.90
58339;DHT22;68636;52.704;6.536;2023-04-15T06:47:59;6.80;99.90
58339;DHT22;68636;52.704;6.536;2023-04-15T06:50:25;6.80;99.90
58339;DHT22;68636;52.704;6.536;2023-04-15T06:52:53;6.90;99.90
58339;DHT22;68636;52.704;6.536;2023-04-15T06:55:19;7.00;99.90
58339;DHT22;68636;52.704;6.536;2023-04-15T06:57:45;7.10;99.90
58339;DHT22;68636;52.704;6.536;2023-04-15T07:00:11;7.20;99.90
58339;DHT22;68636;52.704;6.536;2023-04-15T07:02:37;7.30;99.90
58339;DHT22;68636;52.704;6.536;2023-04-15T07:05:05;7.50;99.90
58339;DHT22;68636;52.704;6.536;2023-04-15T07:07:31;7.50;99.90
58339;DHT22;68636;52.704;6.536;2023-04-15T07:09:57;7.60;99.90
58339;DHT22;68636;52.704;6.536;2023-04-15T07:12:22;7.60;99.90
58339;DHT22;68636;52.704;6.536;2023-04-15T07:14:48;7.90;99.90
58339;DHT22;68636;52.704;6.536;2023-04-15T07:17:14;7.90;99.90
58339;DHT22;68636;52.704;6.536;2023-04-15T07:19:40;8.10;99.90
58339;DHT22;68636;52.704;6.536;2023-04-15T07:22:05;8.10;99.90
58339;DHT22;68636;52.704;6.536;2023-04-15T07:24:32;8.30;99.90
58339;DHT22;68636;52.704;6.536;2023-04-15T07:26:58;8.00;99.90
58339;DHT22;68636;52.704;6.536;2023-04-15T07:29:24;8.10;99.90
58339;DHT22;68636;52.704;6.536;2023-04-15T07:31:50;8.20;99.90
58339;DHT22;68636;52.704;6.536;2023-04-15T07:34:17;8.30;99.90
58339;DHT22;68636;52.704;6.536;2023-04-15T07:36:44;8.20;99.90
58339;DHT22;68636;52.704;6.536;2023-04-15T07:39:10;8.30;99.90
58339;DHT22;68636;52.704;6.536;2023-04-15T07:41:36;8.20;99.90
58339;DHT22;68636;52.704;6.536;2023-04-15T07:44:02;8.40;99.90
58339;DHT22;68636;52.704;6.536;2023-04-15T07:46:28;8.50;99.90
58339;DHT22;68636;52.704;6.536;2023-04-15T07:48:54;8.50;99.90
58339;DHT22;68636;52.704;6.536;2023-04-15T07:51:20;8.50;99.90
58339;DHT22;68636;52.704;6.536;2023-04-15T07:53:47;8.70;99.90
58339;DHT22;68636;52.704;6.536;2023-04-15T07:56:13;8.60;99.90
58339;DHT22;68636;52.704;6.536;2023-04-15T07:58:39;8.80;99.90
58339;DHT22;68636;52.704;6.536;2023-04-15T08:01:05;8.80;99.90
58339;DHT22;68636;52.704;6.536;2023-04-15T08:03:32;8.70;99.90
58339;DHT22;68636;52.704;6.536;2023-04-15T08:05:58;8.70;99.90
58339;DHT22;68636;52.704;6.536;2023-04-15T08:08:24;8.90;99.90
58339;DHT22;68636;52.704;6.536;2023-04-15T08:10:50;9.00;99.90
58339;DHT22;68636;52.704;6.536;2023-04-15T08:13:17;9.10;99.90
58339;DHT22;68636;52.704;6.536;2023-04-15T08:15:42;9.10;99.90
58339;DHT22;68636;52.704;6.536;2023-04-15T08:18:08;9.10;99.90
58339;DHT22;68636;52.704;6.536;2023-04-15T08:20:34;9.10;99.90
58339;DHT22;68636;52.704;6.536;2023-04-15T08:23:00;9.40;99.90
58339;DHT22;68636;52.704;6.536;2023-04-15T08:25:25;9.30;99.90
58339;DHT22;68636;52.704;6.536;2023-04-15T08:27:54;9.60;99.90
58339;DHT22;68636;52.704;6.536;2023-04-15T08:30:22;9.70;99.90
58339;DHT22;68636;52.704;6.536;2023-04-15T08:32:48;9.80;99.90
58339;DHT22;68636;52.704;6.536;2023-04-15T08:35:14;10.00;99.90
58339;DHT22;68636;52.704;6.536;2023-04-15T08:37:40;9.90;99.90
58339;DHT22;68636;52.704;6.536;2023-04-15T08:40:06;10.00;99.90
58339;DHT22;68636;52.704;6.536;2023-04-15T08:42:41;10.30;99.90
58339;DHT22;68636;52.704;6.536;2023-04-15T08:45:09;9.90;99.90
58339;DHT22;68636;52.704;6.536;2023-04-15T08:47:37;10.10;99.90
58339;DHT22;68636;52.704;6.536;2023-04-15T08:50:07;9.80;99.90
58339;DHT22;68636;52.704;6.536;2023-04-15T08:52:33;9.70;99.90
58339;DHT22;68636;52.704;6.536;2023-04-15T08:55:01;9.70;99.90
58339;DHT22;68636;52.704;6.536;2023-04-15T08:57:28;9.80;99.90
58339;DHT22;68636;52.704;6.536;2023-04-15T08:59:57;9.50;99.90
58339;DHT22;68636;52.704;6.536;2023-04-15T09:02:23;9.70;99.90
58339;DHT22;68636;52.704;6.536;2023-04-15T09:04:50;9.80;99.90
58339;DHT22;68636;52.704;6.536;2023-04-15T09:07:16;9.90;99.90
58339;DHT22;68636;52.704;6.536;2023-04-15T09:09:42;10.20;99.90
58339;DHT22;68636;52.704;6.536;2023-04-15T09:12:08;10.20;99.90
58339;DHT22;68636;52.704;6.536;2023-04-15T09:14:35;10.00;99.90
58339;DHT22;68636;52.704;6.536;2023-04-15T09:17:02;10.20;99.90
58339;DHT22;68636;52.704;6.536;2023-04-15T09:19:29;10.20;99.90
58339;DHT22;68636;52.704;6.536;2023-04-15T09:21:57;10.10;99.90
58339;DHT22;68636;52.704;6.536;2023-04-15T09:24:24;10.10;99.90
58339;DHT22;68636;52.704;6.536;2023-04-15T09:26:53;9.90;99.90
58339;DHT22;68636;52.704;6.536;2023-04-15T09:29:23;9.80;99.90
58339;DHT22;68636;52.704;6.536;2023-04-15T09:31:51;9.90;99.90
58339;DHT22;68636;52.704;6.536;2023-04-15T09:34:18;10.00;99.90
58339;DHT22;68636;52.704;6.536;2023-04-15T09:39:13;9.70;99.90
58339;DHT22;68636;52.704;6.536;2023-04-15T09:41:39;9.80;99.90
58339;DHT22;68636;52.704;6.536;2023-04-15T09:44:06;9.70;99.90
58339;DHT22;68636;52.704;6.536;2023-04-15T09:46:44;9.70;99.90
58339;DHT22;68636;52.704;6.536;2023-04-15T09:49:10;9.80;99.90
58339;DHT22;68636;52.704;6.536;2023-04-15T09:51:37;9.90;99.90
58339;DHT22;68636;52.704;6.536;2023-04-15T09:54:03;9.90;99.90
58339;DHT22;68636;52.704;6.536;2023-04-15T09:56:36;10.00;99.90
58339;DHT22;68636;52.704;6.536;2023-04-15T09:59:06;9.70;99.90
58339;DHT22;68636;52.704;6.536;2023-04-15T10:01:32;9.70;99.90
58339;DHT22;68636;52.704;6.536;2023-04-15T10:04:01;10.00;99.90
58339;DHT22;68636;52.704;6.536;2023-04-15T10:06:28;10.00;99.90
58339;DHT22;68636;52.704;6.536;2023-04-15T10:08:56;9.90;99.90
58339;DHT22;68636;52.704;6.536;2023-04-15T10:11:22;9.90;99.90
58339;DHT22;68636;52.704;6.536;2023-04-15T10:13:49;10.30;99.90
58339;DHT22;68636;52.704;6.536;2023-04-15T10:16:18;10.30;99.90
58339;DHT22;68636;52.704;6.536;2023-04-15T10:18:54;10.60;99.90
58339;DHT22;68636;52.704;6.536;2023-04-15T10:21:20;10.50;99.90
58339;DHT22;68636;52.704;6.536;2023-04-15T10:23:48;10.40;99.90
58339;DHT22;68636;52.704;6.536;2023-04-15T10:26:14;10.10;99.90
58339;DHT22;68636;52.704;6.536;2023-04-15T10:28:42;10.00;99.90
58339;DHT22;68636;52.704;6.536;2023-04-15T10:31:08;10.30;99.90
58339;DHT22;68636;52.704;6.536;2023-04-15T10:33:36;10.20;99.90
58339;DHT22;68636;52.704;6.536;2023-04-15T10:36:03;10.60;99.90
58339;DHT22;68636;52.704;6.536;2023-04-15T10:44:02;10.50;99.90
58339;DHT22;68636;52.704;6.536;2023-04-15T10:49:24;10.40;99.90
58339;DHT22;68636;52.704;6.536;2023-04-15T10:51:52;10.60;99.90
58339;DHT22;68636;52.704;6.536;2023-04-15T10:56:51;10.40;99.90
58339;DHT22;68636;52.704;6.536;2023-04-15T10:59:17;10.30;99.90
58339;DHT22;68636;52.704;6.536;2023-04-15T11:01:50;10.10;99.90
58339;DHT22;68636;52.704;6.536;2023-04-15T11:04:51;10.40;99.90
58339;DHT22;68636;52.704;6.536;2023-04-15T11:09:58;10.50;99.90
58339;DHT22;68636;52.704;6.536;2023-04-15T11:12:33;10.60;99.90
58339;DHT22;68636;52.704;6.536;2023-04-15T11:17:51;10.50;99.90
58339;DHT22;68636;52.704;6.536;2023-04-15T11:20:18;10.70;99.90
58339;DHT22;68636;52.704;6.536;2023-04-15T11:22:49;10.70;99.90
58339;DHT22;68636;52.704;6.536;2023-04-15T11:25:28;10.60;99.90
58339;DHT22;68636;52.704;6.536;2023-04-15T11:27:55;10.70;99.90
58339;DHT22;68636;52.704;6.536;2023-04-15T11:30:23;10.60;99.90
58339;DHT22;68636;52.704;6.536;2023-04-15T11:32:50;10.40;99.90
58339;DHT22;68636;52.704;6.536;2023-04-15T11:35:16;10.50;99.90
58339;DHT22;68636;52.704;6.536;2023-04-15T11:37:45;10.40;99.90
58339;DHT22;68636;52.704;6.536;2023-04-15T11:40:13;10.40;99.90
58339;DHT22;68636;52.704;6.536;2023-04-15T11:42:40;10.40;99.90
58339;DHT22;68636;52.704;6.536;2023-04-15T11:45:12;10.50;99.90
58339;DHT22;68636;52.704;6.536;2023-04-15T11:47:39;10.40;99.90
58339;DHT22;68636;52.704;6.536;2023-04-15T11:50:18;10.70;99.90
58339;DHT22;68636;52.704;6.536;2023-04-15T11:52:57;10.50;99.90
58339;DHT22;68636;52.704;6.536;2023-04-15T11:55:24;10.50;99.90
58339;DHT22;68636;52.704;6.536;2023-04-15T12:00:34;10.80;99.90
58339;DHT22;68636;52.704;6.536;2023-04-15T12:03:17;10.70;99.90
58339;DHT22;68636;52.704;6.536;2023-04-15T12:06:06;10.80;99.90
58339;DHT22;68636;52.704;6.536;2023-04-15T12:11:31;10.20;99.90
58339;DHT22;68636;52.704;6.536;2023-04-15T12:14:11;10.10;99.90
58339;DHT22;68636;52.704;6.536;2023-04-15T12:16:40;10.00;99.90
58339;DHT22;68636;52.704;6.536;2023-04-15T12:19:12;10.20;99.90
58339;DHT22;68636;52.704;6.536;2023-04-15T12:21:39;10.30;99.90
58339;DHT22;68636;52.704;6.536;2023-04-15T12:24:08;10.30;99.90
58339;DHT22;68636;52.704;6.536;2023-04-15T12:26:54;9.90;99.90
58339;DHT22;68636;52.704;6.536;2023-04-15T12:29:25;10.10;99.90
58339;DHT22;68636;52.704;6.536;2023-04-15T12:32:06;10.20;99.90
58339;DHT22;68636;52.704;6.536;2023-04-15T12:34:34;10.00;99.90
58339;DHT22;68636;52.704;6.536;2023-04-15T12:37:02;9.90;99.90
58339;DHT22;68636;52.704;6.536;2023-04-15T12:39:31;10.00;99.90
58339;DHT22;68636;52.704;6.536;2023-04-15T12:41:58;10.10;99.90
58339;DHT22;68636;52.704;6.536;2023-04-15T12:44:24;10.10;99.90
58339;DHT22;68636;52.704;6.536;2023-04-15T12:46:51;10.30;99.90
58339;DHT22;68636;52.704;6.536;2023-04-15T12:49:21;9.90;99.90
58339;DHT22;68636;52.704;6.536;2023-04-15T12:51:52;10.20;99.90
58339;DHT22;68636;52.704;6.536;2023-04-15T12:54:18;10.20;99.90
58339;DHT22;68636;52.704;6.536;2023-04-15T12:56:48;10.10;99.90
58339;DHT22;68636;52.704;6.536;2023-04-15T12:59:15;10.30;99.90
58339;DHT22;68636;52.704;6.536;2023-04-15T13:01:43;9.90;99.90
58339;DHT22;68636;52.704;6.536;2023-04-15T13:04:09;9.80;99.90
58339;DHT22;68636;52.704;6.536;2023-04-15T13:06:35;9.90;99.90
58339;DHT22;68636;52.704;6.536;2023-04-15T13:09:03;9.90;99.90
58339;DHT22;68636;52.704;6.536;2023-04-15T13:11:29;9.90;99.90
58339;DHT22;68636;52.704;6.536;2023-04-15T13:14:02;9.90;99.90
58339;DHT22;68636;52.704;6.536;2023-04-15T13:16:28;9.90;99.90
58339;DHT22;68636;52.704;6.536;2023-04-15T13:18:55;10.10;99.90
58339;DHT22;68636;52.704;6.536;2023-04-15T13:21:20;10.20;99.90
58339;DHT22;68636;52.704;6.536;2023-04-15T13:23:48;10.10;99.90
58339;DHT22;68636;52.704;6.536;2023-04-15T13:26:16;9.90;99.90
58339;DHT22;68636;52.704;6.536;2023-04-15T13:28:42;9.70;99.90
58339;DHT22;68636;52.704;6.536;2023-04-15T13:31:07;9.90;99.90
58339;DHT22;68636;52.704;6.536;2023-04-15T13:33:33;10.10;99.90
58339;DHT22;68636;52.704;6.536;2023-04-15T13:35:59;10.20;99.90
58339;DHT22;68636;52.704;6.536;2023-04-15T13:38:25;9.70;99.90
58339;DHT22;68636;52.704;6.536;2023-04-15T13:40:51;10.10;99.90
58339;DHT22;68636;52.704;6.536;2023-04-15T13:43:17;10.10;99.90
58339;DHT22;68636;52.704;6.536;2023-04-15T13:45:43;10.20;99.90
58339;DHT22;68636;52.704;6.536;2023-04-15T13:48:09;10.20;99.90
58339;DHT22;68636;52.704;6.536;2023-04-15T13:50:35;9.80;99.90
58339;DHT22;68636;52.704;6.536;2023-04-15T13:53:00;9.70;99.90
58339;DHT22;68636;52.704;6.536;2023-04-15T13:55:26;9.90;99.90
58339;DHT22;68636;52.704;6.536;2023-04-15T13:57:52;9.80;99.90
58339;DHT22;68636;52.704;6.536;2023-04-15T14:00:18;9.70;99.90
58339;DHT22;68636;52.704;6.536;2023-04-15T14:02:44;9.70;99.90
58339;DHT22;68636;52.704;6.536;2023-04-15T14:05:10;9.60;99.90
58339;DHT22;68636;52.704;6.536;2023-04-15T14:07:36;9.70;99.90
58339;DHT22;68636;52.704;6.536;2023-04-15T14:10:02;9.50;99.90
58339;DHT22;68636;52.704;6.536;2023-04-15T14:12:28;9.50;99.90
58339;DHT22;68636;52.704;6.536;2023-04-15T14:14:54;9.50;99.90
58339;DHT22;68636;52.704;6.536;2023-04-15T14:17:19;9.40;99.90
58339;DHT22;68636;52.704;6.536;2023-04-15T14:19:45;9.30;99.90
58339;DHT22;68636;52.704;6.536;2023-04-15T14:22:11;9.30;99.90
58339;DHT22;68636;52.704;6.536;2023-04-15T14:24:37;9.30;99.90
58339;DHT22;68636;52.704;6.536;2023-04-15T14:27:02;9.20;99.90
58339;DHT22;68636;52.704;6.536;2023-04-15T14:29:28;9.00;99.90
58339;DHT22;68636;52.704;6.536;2023-04-15T14:31:54;8.80;99.90
58339;DHT22;68636;52.704;6.536;2023-04-15T14:34:21;8.80;99.90
58339;DHT22;68636;52.704;6.536;2023-04-15T14:36:50;8.90;99.90
58339;DHT22;68636;52.704;6.536;2023-04-15T14:39:17;8.80;99.90
58339;DHT22;68636;52.704;6.536;2023-04-15T14:41:43;8.80;99.90
58339;DHT22;68636;52.704;6.536;2023-04-15T14:44:08;8.80;99.90
58339;DHT22;68636;52.704;6.536;2023-04-15T14:46:36;8.80;99.90
58339;DHT22;68636;52.704;6.536;2023-04-15T14:49:02;8.80;99.90
58339;DHT22;68636;52.704;6.536;2023-04-15T14:51:28;8.80;99.90
58339;DHT22;68636;52.704;6.536;2023-04-15T14:53:54;8.80;99.90
58339;DHT22;68636;52.704;6.536;2023-04-15T14:56:20;8.80;99.90
58339;DHT22;68636;52.704;6.536;2023-04-15T14:58:45;8.90;99.90
58339;DHT22;68636;52.704;6.536;2023-04-15T15:01:11;8.70;99.90
58339;DHT22;68636;52.704;6.536;2023-04-15T15:03:37;8.60;99.90
58339;DHT22;68636;52.704;6.536;2023-04-15T15:06:03;8.60;99.90
58339;DHT22;68636;52.704;6.536;2023-04-15T15:08:29;8.60;99.90
58339;DHT22;68636;52.704;6.536;2023-04-15T15:10:55;8.70;99.90
58339;DHT22;68636;52.704;6.536;2023-04-15T15:13:21;8.60;99.90
58339;DHT22;68636;52.704;6.536;2023-04-15T15:15:46;8.70;99.90
58339;DHT22;68636;52.704;6.536;2023-04-15T15:18:14;8.60;99.90
58339;DHT22;68636;52.704;6.536;2023-04-15T15:20:41;8.60;99.90
58339;DHT22;68636;52.704;6.536;2023-04-15T15:23:07;8.70;99.90
58339;DHT22;68636;52.704;6.536;2023-04-15T15:25:33;8.60;99.90
58339;DHT22;68636;52.704;6.536;2023-04-15T15:27:58;8.70;99.90
58339;DHT22;68636;52.704;6.536;2023-04-15T15:30:24;8.70;99.90
58339;DHT22;68636;52.704;6.536;2023-04-15T15:32:50;8.70;99.90
58339;DHT22;68636;52.704;6.536;2023-04-15T15:35:16;8.70;99.90
58339;DHT22;68636;52.704;6.536;2023-04-15T15:37:42;8.70;99.90
58339;DHT22;68636;52.704;6.536;2023-04-15T15:40:08;8.80;99.90
58339;DHT22;68636;52.704;6.536;2023-04-15T15:42:34;8.90;99.90
58339;DHT22;68636;52.704;6.536;2023-04-15T15:45:01;8.90;99.90
58339;DHT22;68636;52.704;6.536;2023-04-15T15:47:27;8.80;99.90
58339;DHT22;68636;52.704;6.536;2023-04-15T15:49:53;8.60;99.90
58339;DHT22;68636;52.704;6.536;2023-04-15T15:52:19;8.60;99.90
58339;DHT22;68636;52.704;6.536;2023-04-15T15:54:45;8.70;99.90
58339;DHT22;68636;52.704;6.536;2023-04-15T15:57:11;8.60;99.90
58339;DHT22;68636;52.704;6.536;2023-04-15T15:59:36;8.60;99.90
58339;DHT22;68636;52.704;6.536;2023-04-15T16:02:11;8.60;99.90
58339;DHT22;68636;52.704;6.536;2023-04-15T16:04:38;8.60;99.90